sensor_id;sensor_type;location;lat;lon;timestamp;temperature;humidity
69990;DHT22;57331;52.054;5.294;2022-07-25T00:01:52;24.00;27.10
69990;DHT22;57331;52.054;5.294;2022-07-25T00:04:22;24.10;27.30
69990;DHT22;57331;52.054;5.294;2022-07-25T00:06:49;24.60;27.60
69990;DHT22;57331;52.054;5.294;2022-07-25T00:09:16;24.10;37.00
69990;DHT22;57331;52.054;5.294;2022-07-25T00:11:43;23.60;36.40
69990;DHT22;57331;52.054;5.294;2022-07-25T00:14:09;23.90;27.30
69990;DHT22;57331;52.054;5.294;2022-07-25T00:16:36;25.40;37.00
69990;DHT22;57331;52.054;5.294;2022-07-25T00:21:31;23.80;26.70
69990;DHT22;57331;52.054;5.294;2022-07-25T00:23:58;24.30;36.20
69990;DHT22;57331;52.054;5.294;2022-07-25T00:26:25;23.30;35.80
69990;DHT22;57331;52.054;5.294;2022-07-25T00:28:52;25.00;36.80
69990;DHT22;57331;52.054;5.294;2022-07-25T00:31:18;23.30;36.50
69990;DHT22;57331;52.054;5.294;2022-07-25T00:33:45;22.40;35.40
69990;DHT22;57331;52.054;5.294;2022-07-25T00:36:12;22.50;36.40
69990;DHT22;57331;52.054;5.294;2022-07-25T00:38:39;23.60;28.00
69990;DHT22;57331;52.054;5.294;2022-07-25T00:41:06;23.70;28.00
69990;DHT22;57331;52.054;5.294;2022-07-25T00:43:33;22.50;36.30
69990;DHT22;57331;52.054;5.294;2022-07-25T00:46:00;24.50;37.20
69990;DHT22;57331;52.054;5.294;2022-07-25T00:48:27;23.80;36.90
69990;DHT22;57331;52.054;5.294;2022-07-25T00:50:55;24.80;37.20
69990;DHT22;57331;52.054;5.294;2022-07-25T00:53:22;24.80;37.40
69990;DHT22;57331;52.054;5.294;2022-07-25T00:55:50;23.40;36.30
69990;DHT22;57331;52.054;5.294;2022-07-25T00:58:17;22.70;36.00
69990;DHT22;57331;52.054;5.294;2022-07-25T01:00:44;24.00;37.10
69990;DHT22;57331;52.054;5.294;2022-07-25T01:03:12;22.90;36.30
69990;DHT22;57331;52.054;5.294;2022-07-25T01:05:39;23.30;27.80
69990;DHT22;57331;52.054;5.294;2022-07-25T01:08:06;22.10;36.10
69990;DHT22;57331;52.054;5.294;2022-07-25T01:10:34;22.20;36.40
69990;DHT22;57331;52.054;5.294;2022-07-25T01:13:01;22.30;36.20
69990;DHT22;57331;52.054;5.294;2022-07-25T01:15:29;23.00;37.00
69990;DHT22;57331;52.054;5.294;2022-07-25T01:17:56;24.50;38.00
69990;DHT22;57331;52.054;5.294;2022-07-25T01:20:25;24.00;37.50
69990;DHT22;57331;52.054;5.294;2022-07-25T01:22:52;24.10;37.70
69990;DHT22;57331;52.054;5.294;2022-07-25T01:25:20;21.90;36.70
69990;DHT22;57331;52.054;5.294;2022-07-25T01:27:47;22.80;36.80
69990;DHT22;57331;52.054;5.294;2022-07-25T01:30:22;23.40;37.40
69990;DHT22;57331;52.054;5.294;2022-07-25T01:32:49;24.60;39.10
69990;DHT22;57331;52.054;5.294;2022-07-25T01:35:16;23.40;38.50
69990;DHT22;57331;52.054;5.294;2022-07-25T01:37:43;22.30;37.90
69990;DHT22;57331;52.054;5.294;2022-07-25T01:40:12;22.00;38.00
69990;DHT22;57331;52.054;5.294;2022-07-25T01:42:40;24.00;39.10
69990;DHT22;57331;52.054;5.294;2022-07-25T01:45:07;24.20;39.70
69990;DHT22;57331;52.054;5.294;2022-07-25T01:47:34;22.40;38.50
69990;DHT22;57331;52.054;5.294;2022-07-25T01:50:02;24.20;39.60
69990;DHT22;57331;52.054;5.294;2022-07-25T01:52:29;23.90;39.10
69990;DHT22;57331;52.054;5.294;2022-07-25T01:57:24;22.50;37.20
69990;DHT22;57331;52.054;5.294;2022-07-25T01:59:57;22.00;39.00
69990;DHT22;57331;52.054;5.294;2022-07-25T02:02:24;22.20;39.00
69990;DHT22;57331;52.054;5.294;2022-07-25T02:04:51;21.90;38.60
69990;DHT22;57331;52.054;5.294;2022-07-25T02:07:18;23.00;39.60
69990;DHT22;57331;52.054;5.294;2022-07-25T02:12:12;21.60;38.90
69990;DHT22;57331;52.054;5.294;2022-07-25T02:14:39;21.80;39.10
69990;DHT22;57331;52.054;5.294;2022-07-25T02:17:06;21.60;39.50
69990;DHT22;57331;52.054;5.294;2022-07-25T02:19:34;23.90;41.10
69990;DHT22;57331;52.054;5.294;2022-07-25T02:22:01;22.40;40.20
69990;DHT22;57331;52.054;5.294;2022-07-25T02:24:28;21.50;40.30
69990;DHT22;57331;52.054;5.294;2022-07-25T02:26:55;21.60;35.20
69990;DHT22;57331;52.054;5.294;2022-07-25T02:31:49;21.30;40.90
69990;DHT22;57331;52.054;5.294;2022-07-25T02:36:44;21.30;40.80
69990;DHT22;57331;52.054;5.294;2022-07-25T02:39:11;21.90;41.60
69990;DHT22;57331;52.054;5.294;2022-07-25T02:41:38;21.20;41.40
69990;DHT22;57331;52.054;5.294;2022-07-25T02:44:05;22.30;41.90
69990;DHT22;57331;52.054;5.294;2022-07-25T02:49:01;20.80;41.80
69990;DHT22;57331;52.054;5.294;2022-07-25T02:56:25;20.90;41.90
69990;DHT22;57331;52.054;5.294;2022-07-25T02:58:56;22.10;42.90
69990;DHT22;57331;52.054;5.294;2022-07-25T03:03:50;20.60;42.70
69990;DHT22;57331;52.054;5.294;2022-07-25T03:08:44;20.60;43.10
69990;DHT22;57331;52.054;5.294;2022-07-25T03:11:12;23.00;44.60
69990;DHT22;57331;52.054;5.294;2022-07-25T03:13:39;21.90;44.20
69990;DHT22;57331;52.054;5.294;2022-07-25T03:18:34;20.60;42.90
69990;DHT22;57331;52.054;5.294;2022-07-25T03:23:29;21.70;32.30
69990;DHT22;57331;52.054;5.294;2022-07-25T03:25:57;22.20;43.90
69990;DHT22;57331;52.054;5.294;2022-07-25T03:28:24;23.00;44.30
69990;DHT22;57331;52.054;5.294;2022-07-25T03:30:51;21.70;32.20
69990;DHT22;57331;52.054;5.294;2022-07-25T03:35:45;22.70;43.70
69990;DHT22;57331;52.054;5.294;2022-07-25T03:40:39;23.10;43.70
69990;DHT22;57331;52.054;5.294;2022-07-25T03:48:01;22.60;36.40
69990;DHT22;57331;52.054;5.294;2022-07-25T03:52:55;21.60;42.80
69990;DHT22;57331;52.054;5.294;2022-07-25T03:57:49;23.30;43.30
69990;DHT22;57331;52.054;5.294;2022-07-25T04:00:17;22.20;31.80
69990;DHT22;57331;52.054;5.294;2022-07-25T04:05:11;20.80;42.30
69990;DHT22;57331;52.054;5.294;2022-07-25T04:10:06;20.60;42.30
69990;DHT22;57331;52.054;5.294;2022-07-25T04:12:33;20.60;42.50
69990;DHT22;57331;52.054;5.294;2022-07-25T04:15:00;22.10;43.50
69990;DHT22;57331;52.054;5.294;2022-07-25T04:19:54;23.30;44.00
69990;DHT22;57331;52.054;5.294;2022-07-25T04:22:22;21.70;43.20
69990;DHT22;57331;52.054;5.294;2022-07-25T04:27:16;20.80;42.70
69990;DHT22;57331;52.054;5.294;2022-07-25T04:29:43;20.60;42.50
69990;DHT22;57331;52.054;5.294;2022-07-25T04:34:37;23.20;43.90
69990;DHT22;57331;52.054;5.294;2022-07-25T04:37:04;23.20;43.90
69990;DHT22;57331;52.054;5.294;2022-07-25T04:39:31;22.90;42.50
69990;DHT22;57331;52.054;5.294;2022-07-25T04:46:52;23.60;43.50
69990;DHT22;57331;52.054;5.294;2022-07-25T04:49:19;23.30;43.40
69990;DHT22;57331;52.054;5.294;2022-07-25T04:51:46;22.20;42.60
69990;DHT22;57331;52.054;5.294;2022-07-25T04:59:07;21.50;42.10
69990;DHT22;57331;52.054;5.294;2022-07-25T05:01:34;21.10;39.50
69990;DHT22;57331;52.054;5.294;2022-07-25T05:04:01;22.30;42.60
69990;DHT22;57331;52.054;5.294;2022-07-25T05:06:28;23.60;43.40
69990;DHT22;57331;52.054;5.294;2022-07-25T05:08:55;21.40;42.20
69990;DHT22;57331;52.054;5.294;2022-07-25T05:16:16;21.20;42.10
69990;DHT22;57331;52.054;5.294;2022-07-25T05:18:43;21.10;42.20
69990;DHT22;57331;52.054;5.294;2022-07-25T05:21:12;20.90;42.20
69990;DHT22;57331;52.054;5.294;2022-07-25T05:23:40;23.60;43.70
69990;DHT22;57331;52.054;5.294;2022-07-25T05:26:07;21.30;35.40
69990;DHT22;57331;52.054;5.294;2022-07-25T05:28:33;21.00;42.40
69990;DHT22;57331;52.054;5.294;2022-07-25T05:31:00;22.40;42.90
69990;DHT22;57331;52.054;5.294;2022-07-25T05:33:27;22.00;42.40
69990;DHT22;57331;52.054;5.294;2022-07-25T05:35:54;21.10;41.40
69990;DHT22;57331;52.054;5.294;2022-07-25T05:40:48;21.50;41.50
69990;DHT22;57331;52.054;5.294;2022-07-25T05:43:20;21.80;41.40
69990;DHT22;57331;52.054;5.294;2022-07-25T05:45:46;23.40;42.30
69990;DHT22;57331;52.054;5.294;2022-07-25T05:48:14;21.30;41.10
69990;DHT22;57331;52.054;5.294;2022-07-25T05:50:42;23.50;42.10
69990;DHT22;57331;52.054;5.294;2022-07-25T05:53:09;21.60;41.00
69990;DHT22;57331;52.054;5.294;2022-07-25T05:58:06;22.00;41.60
69990;DHT22;57331;52.054;5.294;2022-07-25T06:00:35;21.90;41.50
69990;DHT22;57331;52.054;5.294;2022-07-25T06:03:02;23.30;33.70
69990;DHT22;57331;52.054;5.294;2022-07-25T06:05:29;23.80;43.40
69990;DHT22;57331;52.054;5.294;2022-07-25T06:10:23;21.50;41.30
69990;DHT22;57331;52.054;5.294;2022-07-25T06:12:50;21.90;41.30
69990;DHT22;57331;52.054;5.294;2022-07-25T06:17:48;23.60;41.60
69990;DHT22;57331;52.054;5.294;2022-07-25T06:20:15;24.60;41.90
69990;DHT22;57331;52.054;5.294;2022-07-25T06:22:42;22.00;40.10
69990;DHT22;57331;52.054;5.294;2022-07-25T06:25:09;24.50;41.70
69990;DHT22;57331;52.054;5.294;2022-07-25T06:27:37;23.20;40.10
69990;DHT22;57331;52.054;5.294;2022-07-25T06:30:05;22.40;38.00
69990;DHT22;57331;52.054;5.294;2022-07-25T06:32:45;22.10;33.90
69990;DHT22;57331;52.054;5.294;2022-07-25T06:35:12;22.40;37.50
69990;DHT22;57331;52.054;5.294;2022-07-25T06:37:39;22.20;38.10
69990;DHT22;57331;52.054;5.294;2022-07-25T06:40:06;23.40;38.60
69990;DHT22;57331;52.054;5.294;2022-07-25T06:42:40;22.40;37.50
69990;DHT22;57331;52.054;5.294;2022-07-25T06:45:08;22.80;37.40
69990;DHT22;57331;52.054;5.294;2022-07-25T06:47:37;23.90;38.10
69990;DHT22;57331;52.054;5.294;2022-07-25T06:50:05;25.30;38.30
69990;DHT22;57331;52.054;5.294;2022-07-25T06:55:02;24.80;36.50
69990;DHT22;57331;52.054;5.294;2022-07-25T06:57:29;23.20;35.60
69990;DHT22;57331;52.054;5.294;2022-07-25T06:59:56;23.60;35.60
69990;DHT22;57331;52.054;5.294;2022-07-25T07:02:23;23.00;34.90
69990;DHT22;57331;52.054;5.294;2022-07-25T07:04:50;24.90;35.80
69990;DHT22;57331;52.054;5.294;2022-07-25T07:07:17;25.50;36.30
69990;DHT22;57331;52.054;5.294;2022-07-25T07:09:43;23.40;35.00
69990;DHT22;57331;52.054;5.294;2022-07-25T07:12:10;25.50;35.40
69990;DHT22;57331;52.054;5.294;2022-07-25T07:14:38;24.70;35.10
69990;DHT22;57331;52.054;5.294;2022-07-25T07:17:05;24.10;33.60
69990;DHT22;57331;52.054;5.294;2022-07-25T07:19:32;25.20;34.30
69990;DHT22;57331;52.054;5.294;2022-07-25T07:21:58;22.70;32.90
69990;DHT22;57331;52.054;5.294;2022-07-25T07:26:53;25.40;34.40
69990;DHT22;57331;52.054;5.294;2022-07-25T07:29:20;25.40;34.50
69990;DHT22;57331;52.054;5.294;2022-07-25T07:31:47;23.30;33.30
69990;DHT22;57331;52.054;5.294;2022-07-25T07:34:14;24.30;33.70
69990;DHT22;57331;52.054;5.294;2022-07-25T07:36:42;24.00;33.40
69990;DHT22;57331;52.054;5.294;2022-07-25T07:39:09;24.00;33.60
69990;DHT22;57331;52.054;5.294;2022-07-25T07:44:04;25.70;34.70
69990;DHT22;57331;52.054;5.294;2022-07-25T07:46:31;24.60;34.30
69990;DHT22;57331;52.054;5.294;2022-07-25T07:48:58;25.30;34.90
69990;DHT22;57331;52.054;5.294;2022-07-25T07:51:25;24.40;35.20
69990;DHT22;57331;52.054;5.294;2022-07-25T07:53:52;24.60;34.60
69990;DHT22;57331;52.054;5.294;2022-07-25T07:56:38;23.20;33.50
69990;DHT22;57331;52.054;5.294;2022-07-25T07:59:05;26.00;35.50
69990;DHT22;57331;52.054;5.294;2022-07-25T08:01:33;26.20;35.60
69990;DHT22;57331;52.054;5.294;2022-07-25T08:04:00;23.90;36.30
69990;DHT22;57331;52.054;5.294;2022-07-25T08:06:26;25.20;36.20
69990;DHT22;57331;52.054;5.294;2022-07-25T08:08:53;23.50;34.20
69990;DHT22;57331;52.054;5.294;2022-07-25T08:11:20;24.90;26.90
69990;DHT22;57331;52.054;5.294;2022-07-25T08:13:47;25.00;26.80
69990;DHT22;57331;52.054;5.294;2022-07-25T08:16:14;24.50;35.70
69990;DHT22;57331;52.054;5.294;2022-07-25T08:18:41;26.30;35.00
69990;DHT22;57331;52.054;5.294;2022-07-25T08:21:08;25.00;34.60
69990;DHT22;57331;52.054;5.294;2022-07-25T08:26:06;23.80;35.10
69990;DHT22;57331;52.054;5.294;2022-07-25T08:28:33;23.60;35.50
69990;DHT22;57331;52.054;5.294;2022-07-25T08:31:00;23.40;36.30
69990;DHT22;57331;52.054;5.294;2022-07-25T08:33:27;22.60;36.30
69990;DHT22;57331;52.054;5.294;2022-07-25T08:35:55;24.40;37.70
69990;DHT22;57331;52.054;5.294;2022-07-25T08:38:25;22.50;36.90
69990;DHT22;57331;52.054;5.294;2022-07-25T08:40:53;23.70;38.10
69990;DHT22;57331;52.054;5.294;2022-07-25T08:45:53;25.60;39.10
69990;DHT22;57331;52.054;5.294;2022-07-25T08:48:22;25.40;37.90
69990;DHT22;57331;52.054;5.294;2022-07-25T08:50:51;24.70;26.40
69990;DHT22;57331;52.054;5.294;2022-07-25T08:53:19;23.40;33.90
69990;DHT22;57331;52.054;5.294;2022-07-25T08:56:04;26.30;35.50
69990;DHT22;57331;52.054;5.294;2022-07-25T08:58:39;25.30;35.50
69990;DHT22;57331;52.054;5.294;2022-07-25T09:01:07;22.00;25.10
69990;DHT22;57331;52.054;5.294;2022-07-25T09:03:34;25.20;26.00
69990;DHT22;57331;52.054;5.294;2022-07-25T09:06:13;26.30;34.40
69990;DHT22;57331;52.054;5.294;2022-07-25T09:08:50;26.10;35.00
69990;DHT22;57331;52.054;5.294;2022-07-25T09:11:27;25.70;26.30
69990;DHT22;57331;52.054;5.294;2022-07-25T09:14:21;25.30;33.90
69990;DHT22;57331;52.054;5.294;2022-07-25T09:16:48;25.30;25.50
69990;DHT22;57331;52.054;5.294;2022-07-25T09:19:18;26.10;32.70
69990;DHT22;57331;52.054;5.294;2022-07-25T09:21:58;23.80;32.70
69990;DHT22;57331;52.054;5.294;2022-07-25T09:24:25;24.60;34.30
69990;DHT22;57331;52.054;5.294;2022-07-25T09:26:54;23.90;33.10
69990;DHT22;57331;52.054;5.294;2022-07-25T09:29:24;25.40;35.10
69990;DHT22;57331;52.054;5.294;2022-07-25T09:31:53;24.70;36.90
69990;DHT22;57331;52.054;5.294;2022-07-25T09:37:02;24.00;35.50
69990;DHT22;57331;52.054;5.294;2022-07-25T09:39:49;24.70;27.00
69990;DHT22;57331;52.054;5.294;2022-07-25T09:42:23;24.20;37.20
69990;DHT22;57331;52.054;5.294;2022-07-25T09:45:05;25.90;36.70
69990;DHT22;57331;52.054;5.294;2022-07-25T09:47:35;25.60;26.40
69990;DHT22;57331;52.054;5.294;2022-07-25T09:50:04;25.50;35.20
69990;DHT22;57331;52.054;5.294;2022-07-25T09:52:31;25.70;26.70
69990;DHT22;57331;52.054;5.294;2022-07-25T09:55:02;25.90;25.90
69990;DHT22;57331;52.054;5.294;2022-07-25T09:57:29;26.10;33.00
69990;DHT22;57331;52.054;5.294;2022-07-25T09:59:59;26.40;25.60
69990;DHT22;57331;52.054;5.294;2022-07-25T10:02:45;25.70;32.40
69990;DHT22;57331;52.054;5.294;2022-07-25T10:07:52;26.80;24.10
69990;DHT22;57331;52.054;5.294;2022-07-25T10:10:35;27.10;31.90
69990;DHT22;57331;52.054;5.294;2022-07-25T10:13:05;26.40;23.70
69990;DHT22;57331;52.054;5.294;2022-07-25T10:15:47;26.40;24.10
69990;DHT22;57331;52.054;5.294;2022-07-25T10:18:16;26.10;24.30
69990;DHT22;57331;52.054;5.294;2022-07-25T10:20:45;26.00;23.90
69990;DHT22;57331;52.054;5.294;2022-07-25T10:23:26;26.80;24.30
69990;DHT22;57331;52.054;5.294;2022-07-25T10:26:09;25.80;30.40
69990;DHT22;57331;52.054;5.294;2022-07-25T10:28:40;26.70;21.40
69990;DHT22;57331;52.054;5.294;2022-07-25T10:31:15;22.90;20.30
69990;DHT22;57331;52.054;5.294;2022-07-25T10:33:42;26.50;22.30
69990;DHT22;57331;52.054;5.294;2022-07-25T10:36:09;26.20;21.80
69990;DHT22;57331;52.054;5.294;2022-07-25T10:38:38;26.00;30.00
69990;DHT22;57331;52.054;5.294;2022-07-25T10:41:11;25.30;30.00
69990;DHT22;57331;52.054;5.294;2022-07-25T10:43:39;26.50;30.80
69990;DHT22;57331;52.054;5.294;2022-07-25T10:46:19;25.60;23.00
69990;DHT22;57331;52.054;5.294;2022-07-25T10:48:59;26.30;32.50
69990;DHT22;57331;52.054;5.294;2022-07-25T10:51:30;25.60;23.50
69990;DHT22;57331;52.054;5.294;2022-07-25T10:53:57;25.30;22.70
69990;DHT22;57331;52.054;5.294;2022-07-25T10:56:27;26.70;29.60
69990;DHT22;57331;52.054;5.294;2022-07-25T10:58:59;26.40;22.50
69990;DHT22;57331;52.054;5.294;2022-07-25T11:01:33;26.50;29.60
69990;DHT22;57331;52.054;5.294;2022-07-25T11:04:13;25.70;29.40
69990;DHT22;57331;52.054;5.294;2022-07-25T11:06:41;25.70;20.60
69990;DHT22;57331;52.054;5.294;2022-07-25T11:09:16;25.70;21.30
69990;DHT22;57331;52.054;5.294;2022-07-25T11:11:52;27.10;28.80
69990;DHT22;57331;52.054;5.294;2022-07-25T11:14:23;25.50;29.10
69990;DHT22;57331;52.054;5.294;2022-07-25T11:16:53;25.50;28.90
69990;DHT22;57331;52.054;5.294;2022-07-25T11:19:27;25.00;29.10
69990;DHT22;57331;52.054;5.294;2022-07-25T11:21:59;25.20;22.10
69990;DHT22;57331;52.054;5.294;2022-07-25T11:24:36;25.60;22.90
69990;DHT22;57331;52.054;5.294;2022-07-25T11:27:03;26.40;31.00
69990;DHT22;57331;52.054;5.294;2022-07-25T11:29:38;26.50;30.40
69990;DHT22;57331;52.054;5.294;2022-07-25T11:32:07;26.10;23.00
69990;DHT22;57331;52.054;5.294;2022-07-25T11:34:36;25.40;30.40
69990;DHT22;57331;52.054;5.294;2022-07-25T11:37:06;25.90;30.50
69990;DHT22;57331;52.054;5.294;2022-07-25T11:39:36;25.40;22.70
69990;DHT22;57331;52.054;5.294;2022-07-25T11:44:33;25.20;31.40
69990;DHT22;57331;52.054;5.294;2022-07-25T11:47:01;25.60;32.40
69990;DHT22;57331;52.054;5.294;2022-07-25T11:49:28;23.60;30.90
69990;DHT22;57331;52.054;5.294;2022-07-25T11:51:55;25.70;31.90
69990;DHT22;57331;52.054;5.294;2022-07-25T11:54:22;23.40;30.80
69990;DHT22;57331;52.054;5.294;2022-07-25T11:56:49;24.70;24.20
69990;DHT22;57331;52.054;5.294;2022-07-25T11:59:16;23.20;31.00
69990;DHT22;57331;52.054;5.294;2022-07-25T12:01:43;25.60;32.50
69990;DHT22;57331;52.054;5.294;2022-07-25T12:04:18;23.30;31.20
69990;DHT22;57331;52.054;5.294;2022-07-25T12:06:47;22.80;31.60
69990;DHT22;57331;52.054;5.294;2022-07-25T12:09:19;24.80;33.60
69990;DHT22;57331;52.054;5.294;2022-07-25T12:11:47;23.60;32.10
69990;DHT22;57331;52.054;5.294;2022-07-25T12:16:42;22.70;32.70
69990;DHT22;57331;52.054;5.294;2022-07-25T12:19:18;22.30;32.60
69990;DHT22;57331;52.054;5.294;2022-07-25T12:21:45;25.00;34.40
69990;DHT22;57331;52.054;5.294;2022-07-25T12:24:12;22.90;33.10
69990;DHT22;57331;52.054;5.294;2022-07-25T12:26:39;23.90;33.40
69990;DHT22;57331;52.054;5.294;2022-07-25T12:29:06;25.40;34.20
69990;DHT22;57331;52.054;5.294;2022-07-25T12:31:33;25.40;33.70
69990;DHT22;57331;52.054;5.294;2022-07-25T12:34:00;25.50;33.00
69990;DHT22;57331;52.054;5.294;2022-07-25T12:36:27;25.60;31.60
69990;DHT22;57331;52.054;5.294;2022-07-25T12:38:54;24.00;29.20
69990;DHT22;57331;52.054;5.294;2022-07-25T12:41:21;23.80;28.20
69990;DHT22;57331;52.054;5.294;2022-07-25T12:43:49;25.10;29.30
69990;DHT22;57331;52.054;5.294;2022-07-25T12:46:15;25.50;27.10
69990;DHT22;57331;52.054;5.294;2022-07-25T12:48:43;26.20;26.40
69990;DHT22;57331;52.054;5.294;2022-07-25T12:51:11;26.10;19.30
69990;DHT22;57331;52.054;5.294;2022-07-25T12:53:37;26.50;18.50
69990;DHT22;57331;52.054;5.294;2022-07-25T12:56:08;27.20;17.70
69990;DHT22;57331;52.054;5.294;2022-07-25T12:58:35;26.50;24.00
69990;DHT22;57331;52.054;5.294;2022-07-25T13:01:03;26.50;17.40
69990;DHT22;57331;52.054;5.294;2022-07-25T13:03:31;25.80;17.40
69990;DHT22;57331;52.054;5.294;2022-07-25T13:05:58;25.90;17.90
69990;DHT22;57331;52.054;5.294;2022-07-25T13:08:25;26.30;23.90
69990;DHT22;57331;52.054;5.294;2022-07-25T13:10:52;26.60;24.30
69990;DHT22;57331;52.054;5.294;2022-07-25T13:13:18;27.30;24.50
69990;DHT22;57331;52.054;5.294;2022-07-25T13:15:45;26.60;17.30
69990;DHT22;57331;52.054;5.294;2022-07-25T13:18:12;27.90;22.90
69990;DHT22;57331;52.054;5.294;2022-07-25T13:20:39;27.10;16.30
69990;DHT22;57331;52.054;5.294;2022-07-25T13:23:08;27.20;15.90
69990;DHT22;57331;52.054;5.294;2022-07-25T13:25:35;27.30;15.70
69990;DHT22;57331;52.054;5.294;2022-07-25T13:28:02;27.50;15.50
69990;DHT22;57331;52.054;5.294;2022-07-25T13:30:36;27.80;15.50
69990;DHT22;57331;52.054;5.294;2022-07-25T13:33:03;27.70;20.90
69990;DHT22;57331;52.054;5.294;2022-07-25T13:35:30;29.20;22.30
69990;DHT22;57331;52.054;5.294;2022-07-25T13:38:04;28.10;14.90
69990;DHT22;57331;52.054;5.294;2022-07-25T13:40:31;28.30;14.50
69990;DHT22;57331;52.054;5.294;2022-07-25T13:42:58;28.10;14.10
69990;DHT22;57331;52.054;5.294;2022-07-25T13:45:25;27.70;14.10
69990;DHT22;57331;52.054;5.294;2022-07-25T13:47:52;26.60;21.80
69990;DHT22;57331;52.054;5.294;2022-07-25T13:50:38;27.10;15.10
69990;DHT22;57331;52.054;5.294;2022-07-25T13:53:06;27.10;14.50
69990;DHT22;57331;52.054;5.294;2022-07-25T13:55:33;26.90;14.80
69990;DHT22;57331;52.054;5.294;2022-07-25T13:58:00;27.00;14.90
69990;DHT22;57331;52.054;5.294;2022-07-25T14:00:27;28.00;15.20
69990;DHT22;57331;52.054;5.294;2022-07-25T14:02:53;27.90;21.50
69990;DHT22;57331;52.054;5.294;2022-07-25T14:05:20;27.30;14.00
69990;DHT22;57331;52.054;5.294;2022-07-25T14:07:47;27.30;13.90
69990;DHT22;57331;52.054;5.294;2022-07-25T14:10:14;27.10;21.90
69990;DHT22;57331;52.054;5.294;2022-07-25T14:12:41;26.20;13.90
69990;DHT22;57331;52.054;5.294;2022-07-25T14:15:08;25.70;23.20
69990;DHT22;57331;52.054;5.294;2022-07-25T14:17:35;26.30;23.40
69990;DHT22;57331;52.054;5.294;2022-07-25T14:20:05;26.30;16.40
69990;DHT22;57331;52.054;5.294;2022-07-25T14:22:32;25.90;16.50
69990;DHT22;57331;52.054;5.294;2022-07-25T14:25:00;25.40;23.90
69990;DHT22;57331;52.054;5.294;2022-07-25T14:27:27;26.90;16.80
69990;DHT22;57331;52.054;5.294;2022-07-25T14:29:54;26.50;22.80
69990;DHT22;57331;52.054;5.294;2022-07-25T14:32:21;27.10;23.20
69990;DHT22;57331;52.054;5.294;2022-07-25T14:34:48;26.40;15.60
69990;DHT22;57331;52.054;5.294;2022-07-25T14:37:17;28.10;20.60
69990;DHT22;57331;52.054;5.294;2022-07-25T14:39:45;27.10;12.30
69990;DHT22;57331;52.054;5.294;2022-07-25T14:42:12;28.30;18.70
69990;DHT22;57331;52.054;5.294;2022-07-25T14:44:39;27.80;11.60
69990;DHT22;57331;52.054;5.294;2022-07-25T14:47:06;28.30;10.60
69990;DHT22;57331;52.054;5.294;2022-07-25T14:49:39;28.10;10.70
69990;DHT22;57331;52.054;5.294;2022-07-25T14:52:06;28.30;9.30
69990;DHT22;57331;52.054;5.294;2022-07-25T14:54:33;27.80;16.60
69990;DHT22;57331;52.054;5.294;2022-07-25T14:57:00;28.00;10.10
69990;DHT22;57331;52.054;5.294;2022-07-25T14:59:27;27.90;9.60
69990;DHT22;57331;52.054;5.294;2022-07-25T15:01:54;28.00;9.70
69990;DHT22;57331;52.054;5.294;2022-07-25T15:04:21;28.20;9.10
69990;DHT22;57331;52.054;5.294;2022-07-25T15:06:51;28.20;9.50
69990;DHT22;57331;52.054;5.294;2022-07-25T15:09:19;29.30;10.40
69990;DHT22;57331;52.054;5.294;2022-07-25T15:11:46;28.40;9.70
69990;DHT22;57331;52.054;5.294;2022-07-25T15:14:14;28.30;9.80
69990;DHT22;57331;52.054;5.294;2022-07-25T15:16:41;27.90;9.50
69990;DHT22;57331;52.054;5.294;2022-07-25T15:19:08;28.20;10.00
69990;DHT22;57331;52.054;5.294;2022-07-25T15:21:44;28.10;15.50
69990;DHT22;57331;52.054;5.294;2022-07-25T15:24:12;28.90;18.30
69990;DHT22;57331;52.054;5.294;2022-07-25T15:26:38;28.60;17.70
69990;DHT22;57331;52.054;5.294;2022-07-25T15:29:06;28.10;10.80
69990;DHT22;57331;52.054;5.294;2022-07-25T15:31:35;28.50;10.40
69990;DHT22;57331;52.054;5.294;2022-07-25T15:34:03;29.70;17.80
69990;DHT22;57331;52.054;5.294;2022-07-25T15:36:30;27.60;17.00
69990;DHT22;57331;52.054;5.294;2022-07-25T15:38:57;28.00;10.50
69990;DHT22;57331;52.054;5.294;2022-07-25T15:41:23;28.10;10.60
69990;DHT22;57331;52.054;5.294;2022-07-25T15:43:50;27.90;16.90
69990;DHT22;57331;52.054;5.294;2022-07-25T15:46:17;27.80;10.20
69990;DHT22;57331;52.054;5.294;2022-07-25T15:48:44;27.20;11.00
69990;DHT22;57331;52.054;5.294;2022-07-25T15:51:14;27.00;11.90
69990;DHT22;57331;52.054;5.294;2022-07-25T15:53:42;26.90;12.50
69990;DHT22;57331;52.054;5.294;2022-07-25T15:56:09;27.00;12.70
69990;DHT22;57331;52.054;5.294;2022-07-25T15:58:36;26.90;12.20
69990;DHT22;57331;52.054;5.294;2022-07-25T16:01:03;26.80;12.10
69990;DHT22;57331;52.054;5.294;2022-07-25T16:03:30;26.70;12.40
69990;DHT22;57331;52.054;5.294;2022-07-25T16:05:57;27.90;19.50
69990;DHT22;57331;52.054;5.294;2022-07-25T16:08:24;26.90;19.50
69990;DHT22;57331;52.054;5.294;2022-07-25T16:10:51;26.80;12.40
69990;DHT22;57331;52.054;5.294;2022-07-25T16:13:18;26.70;19.60
69990;DHT22;57331;52.054;5.294;2022-07-25T16:15:45;27.80;13.20
69990;DHT22;57331;52.054;5.294;2022-07-25T16:18:12;26.50;19.50
69990;DHT22;57331;52.054;5.294;2022-07-25T16:20:39;27.10;12.80
69990;DHT22;57331;52.054;5.294;2022-07-25T16:23:05;26.90;12.40
69990;DHT22;57331;52.054;5.294;2022-07-25T16:25:32;27.00;12.80
69990;DHT22;57331;52.054;5.294;2022-07-25T16:27:59;26.10;18.40
69990;DHT22;57331;52.054;5.294;2022-07-25T16:30:27;27.70;19.30
69990;DHT22;57331;52.054;5.294;2022-07-25T16:32:54;28.20;19.00
69990;DHT22;57331;52.054;5.294;2022-07-25T16:35:21;27.90;19.90
69990;DHT22;57331;52.054;5.294;2022-07-25T16:37:48;27.30;12.60
69990;DHT22;57331;52.054;5.294;2022-07-25T16:40:15;26.40;20.70
69990;DHT22;57331;52.054;5.294;2022-07-25T16:42:42;27.40;14.10
69990;DHT22;57331;52.054;5.294;2022-07-25T16:45:09;26.20;21.10
69990;DHT22;57331;52.054;5.294;2022-07-25T16:47:36;26.10;21.20
69990;DHT22;57331;52.054;5.294;2022-07-25T16:50:05;26.80;22.50
69990;DHT22;57331;52.054;5.294;2022-07-25T16:52:33;27.00;22.80
69990;DHT22;57331;52.054;5.294;2022-07-25T16:54:59;26.10;14.70
69990;DHT22;57331;52.054;5.294;2022-07-25T16:57:26;25.70;21.20
69990;DHT22;57331;52.054;5.294;2022-07-25T16:59:53;26.80;14.40
69990;DHT22;57331;52.054;5.294;2022-07-25T17:02:20;25.80;22.00
69990;DHT22;57331;52.054;5.294;2022-07-25T17:07:19;25.90;13.70
69990;DHT22;57331;52.054;5.294;2022-07-25T17:09:46;26.00;22.10
69990;DHT22;57331;52.054;5.294;2022-07-25T17:12:13;25.60;14.30
69990;DHT22;57331;52.054;5.294;2022-07-25T17:14:40;25.50;14.70
69990;DHT22;57331;52.054;5.294;2022-07-25T17:17:06;25.10;23.20
69990;DHT22;57331;52.054;5.294;2022-07-25T17:19:34;24.80;23.60
69990;DHT22;57331;52.054;5.294;2022-07-25T17:22:06;25.20;15.90
69990;DHT22;57331;52.054;5.294;2022-07-25T17:24:33;24.70;23.80